sensor_id;sensor_type;location;lat;lon;timestamp;P1;durP1;ratioP1;P2;durP2;ratioP2
46491;SDS011;32206;51.446;6.792;2023-05-09T00:00:42;6.97;;;6.28;;
46491;SDS011;32206;51.446;6.792;2023-05-09T00:03:08;6.85;;;6.15;;
46491;SDS011;32206;51.446;6.792;2023-05-09T00:05:33;7.60;;;6.93;;
46491;SDS011;32206;51.446;6.792;2023-05-09T00:07:59;7.25;;;6.50;;
46491;SDS011;32206;51.446;6.792;2023-05-09T00:10:25;7.60;;;6.85;;
46491;SDS011;32206;51.446;6.792;2023-05-09T00:12:51;7.25;;;6.60;;
46491;SDS011;32206;51.446;6.792;2023-05-09T00:15:17;7.55;;;6.93;;
46491;SDS011;32206;51.446;6.792;2023-05-09T00:17:43;8.15;;;7.35;;
46491;SDS011;32206;51.446;6.792;2023-05-09T00:20:09;8.88;;;6.47;;
46491;SDS011;32206;51.446;6.792;2023-05-09T00:22:36;7.40;;;6.80;;
46491;SDS011;32206;51.446;6.792;2023-05-09T00:25:04;6.78;;;6.28;;
46491;SDS011;32206;51.446;6.792;2023-05-09T00:27:30;11.80;;;6.88;;
46491;SDS011;32206;51.446;6.792;2023-05-09T00:29:56;8.00;;;7.20;;
46491;SDS011;32206;51.446;6.792;2023-05-09T00:32:22;7.88;;;7.18;;
46491;SDS011;32206;51.446;6.792;2023-05-09T00:34:49;9.48;;;6.88;;
46491;SDS011;32206;51.446;6.792;2023-05-09T00:37:14;7.07;;;6.40;;
46491;SDS011;32206;51.446;6.792;2023-05-09T00:39:42;8.32;;;7.38;;
46491;SDS011;32206;51.446;6.792;2023-05-09T00:42:07;7.70;;;6.95;;
46491;SDS011;32206;51.446;6.792;2023-05-09T00:44:33;8.20;;;7.50;;
46491;SDS011;32206;51.446;6.792;2023-05-09T00:46:59;7.65;;;7.05;;
46491;SDS011;32206;51.446;6.792;2023-05-09T00:49:24;8.50;;;7.55;;
46491;SDS011;32206;51.446;6.792;2023-05-09T00:55:12;8.35;;;7.65;;
46491;SDS011;32206;51.446;6.792;2023-05-09T00:57:40;8.55;;;7.85;;
46491;SDS011;32206;51.446;6.792;2023-05-09T01:00:05;8.60;;;7.78;;
46491;SDS011;32206;51.446;6.792;2023-05-09T01:02:36;9.27;;;7.85;;
46491;SDS011;32206;51.446;6.792;2023-05-09T01:05:06;10.00;;;8.52;;
46491;SDS011;32206;51.446;6.792;2023-05-09T01:07:32;9.38;;;8.48;;
46491;SDS011;32206;51.446;6.792;2023-05-09T01:10:20;10.73;;;8.40;;
46491;SDS011;32206;51.446;6.792;2023-05-09T01:15:42;13.07;;;9.13;;
46491;SDS011;32206;51.446;6.792;2023-05-09T01:18:24;10.02;;;9.13;;
46491;SDS011;32206;51.446;6.792;2023-05-09T01:29:47;11.25;;;10.15;;
46491;SDS011;32206;51.446;6.792;2023-05-09T01:32:24;11.38;;;10.27;;
46491;SDS011;32206;51.446;6.792;2023-05-09T01:34:51;11.60;;;9.93;;
46491;SDS011;32206;51.446;6.792;2023-05-09T01:37:21;11.48;;;10.32;;
46491;SDS011;32206;51.446;6.792;2023-05-09T01:39:52;11.95;;;10.75;;
46491;SDS011;32206;51.446;6.792;2023-05-09T01:42:22;14.88;;;11.75;;
46491;SDS011;32206;51.446;6.792;2023-05-09T01:44:51;16.40;;;11.77;;
46491;SDS011;32206;51.446;6.792;2023-05-09T01:47:18;13.60;;;11.77;;
46491;SDS011;32206;51.446;6.792;2023-05-09T01:49:45;13.18;;;11.82;;
46491;SDS011;32206;51.446;6.792;2023-05-09T01:58:56;15.05;;;11.45;;
46491;SDS011;32206;51.446;6.792;2023-05-09T02:08:08;16.58;;;11.65;;
46491;SDS011;32206;51.446;6.792;2023-05-09T02:10:35;15.63;;;12.88;;
46491;SDS011;32206;51.446;6.792;2023-05-09T02:13:02;15.07;;;12.18;;
46491;SDS011;32206;51.446;6.792;2023-05-09T02:15:28;15.90;;;12.50;;
46491;SDS011;32206;51.446;6.792;2023-05-09T02:17:54;16.65;;;12.90;;
46491;SDS011;32206;51.446;6.792;2023-05-09T02:20:20;20.42;;;13.43;;
46491;SDS011;32206;51.446;6.792;2023-05-09T02:22:45;18.05;;;12.98;;
46491;SDS011;32206;51.446;6.792;2023-05-09T02:25:12;17.48;;;13.45;;
46491;SDS011;32206;51.446;6.792;2023-05-09T02:27:39;19.98;;;14.20;;
46491;SDS011;32206;51.446;6.792;2023-05-09T02:30:06;15.00;;;12.93;;
46491;SDS011;32206;51.446;6.792;2023-05-09T02:32:35;15.27;;;12.98;;
46491;SDS011;32206;51.446;6.792;2023-05-09T02:35:03;18.70;;;13.82;;
46491;SDS011;32206;51.446;6.792;2023-05-09T02:37:30;20.17;;;14.18;;
46491;SDS011;32206;51.446;6.792;2023-05-09T02:39:56;15.75;;;14.10;;
46491;SDS011;32206;51.446;6.792;2023-05-09T02:42:23;17.13;;;14.43;;
46491;SDS011;32206;51.446;6.792;2023-05-09T02:51:35;17.00;;;14.73;;
46491;SDS011;32206;51.446;6.792;2023-05-09T02:54:00;16.30;;;14.55;;
46491;SDS011;32206;51.446;6.792;2023-05-09T02:56:26;19.27;;;14.80;;
46491;SDS011;32206;51.446;6.792;2023-05-09T02:58:51;17.23;;;15.18;;
46491;SDS011;32206;51.446;6.792;2023-05-09T03:01:17;19.00;;;14.75;;
46491;SDS011;32206;51.446;6.792;2023-05-09T03:03:43;16.95;;;14.80;;
46491;SDS011;32206;51.446;6.792;2023-05-09T03:06:09;19.60;;;15.43;;
46491;SDS011;32206;51.446;6.792;2023-05-09T03:08:35;17.90;;;14.27;;
46491;SDS011;32206;51.446;6.792;2023-05-09T03:11:01;16.77;;;14.25;;
46491;SDS011;32206;51.446;6.792;2023-05-09T03:16:48;21.83;;;16.83;;
46491;SDS011;32206;51.446;6.792;2023-05-09T03:19:14;22.27;;;17.25;;
46491;SDS011;32206;51.446;6.792;2023-05-09T03:21:40;26.13;;;15.38;;
46491;SDS011;32206;51.446;6.792;2023-05-09T03:24:06;20.52;;;15.75;;
46491;SDS011;32206;51.446;6.792;2023-05-09T03:26:32;19.42;;;15.35;;
46491;SDS011;32206;51.446;6.792;2023-05-09T03:28:59;20.33;;;16.48;;
46491;SDS011;32206;51.446;6.792;2023-05-09T03:31:25;22.02;;;16.25;;
46491;SDS011;32206;51.446;6.792;2023-05-09T03:33:51;27.92;;;16.80;;
46491;SDS011;32206;51.446;6.792;2023-05-09T03:36:17;27.52;;;18.40;;
46491;SDS011;32206;51.446;6.792;2023-05-09T03:38:42;28.58;;;19.23;;
46491;SDS011;32206;51.446;6.792;2023-05-09T03:41:08;25.50;;;19.52;;
46491;SDS011;32206;51.446;6.792;2023-05-09T03:50:18;39.40;;;23.00;;
46491;SDS011;32206;51.446;6.792;2023-05-09T03:52:44;53.08;;;31.30;;
46491;SDS011;32206;51.446;6.792;2023-05-09T03:55:10;44.42;;;25.38;;
46491;SDS011;32206;51.446;6.792;2023-05-09T03:57:36;47.50;;;24.90;;
46491;SDS011;32206;51.446;6.792;2023-05-09T04:00:02;47.85;;;27.83;;
46491;SDS011;32206;51.446;6.792;2023-05-09T04:02:30;45.55;;;25.95;;
46491;SDS011;32206;51.446;6.792;2023-05-09T04:04:57;44.53;;;26.15;;
46491;SDS011;32206;51.446;6.792;2023-05-09T04:07:22;87.03;;;48.30;;
46491;SDS011;32206;51.446;6.792;2023-05-09T04:09:48;52.78;;;31.00;;
46491;SDS011;32206;51.446;6.792;2023-05-09T04:12:14;48.22;;;28.95;;
46491;SDS011;32206;51.446;6.792;2023-05-09T04:14:40;45.28;;;26.42;;
46491;SDS011;32206;51.446;6.792;2023-05-09T04:17:05;40.97;;;25.20;;
46491;SDS011;32206;51.446;6.792;2023-05-09T04:19:31;41.63;;;26.40;;
46491;SDS011;32206;51.446;6.792;2023-05-09T04:21:56;43.03;;;25.23;;
46491;SDS011;32206;51.446;6.792;2023-05-09T04:24:22;42.13;;;25.48;;
46491;SDS011;32206;51.446;6.792;2023-05-09T04:26:48;43.67;;;25.80;;
46491;SDS011;32206;51.446;6.792;2023-05-09T04:29:13;45.70;;;27.48;;
46491;SDS011;32206;51.446;6.792;2023-05-09T04:31:39;43.60;;;27.60;;
46491;SDS011;32206;51.446;6.792;2023-05-09T04:34:05;46.97;;;28.48;;
46491;SDS011;32206;51.446;6.792;2023-05-09T04:39:52;58.35;;;28.67;;
46491;SDS011;32206;51.446;6.792;2023-05-09T04:42:18;51.08;;;27.77;;
46491;SDS011;32206;51.446;6.792;2023-05-09T04:44:44;53.15;;;30.15;;
46491;SDS011;32206;51.446;6.792;2023-05-09T04:47:10;51.83;;;30.65;;
46491;SDS011;32206;51.446;6.792;2023-05-09T04:49:36;56.45;;;31.23;;
46491;SDS011;32206;51.446;6.792;2023-05-09T04:52:01;49.13;;;28.88;;
46491;SDS011;32206;51.446;6.792;2023-05-09T04:54:27;45.88;;;26.73;;
46491;SDS011;32206;51.446;6.792;2023-05-09T04:56:53;50.97;;;26.27;;
46491;SDS011;32206;51.446;6.792;2023-05-09T04:59:18;40.05;;;23.83;;
46491;SDS011;32206;51.446;6.792;2023-05-09T05:01:44;47.30;;;24.73;;
46491;SDS011;32206;51.446;6.792;2023-05-09T05:04:10;42.08;;;25.30;;
46491;SDS011;32206;51.446;6.792;2023-05-09T05:06:35;41.63;;;25.92;;
46491;SDS011;32206;51.446;6.792;2023-05-09T05:09:01;39.97;;;23.85;;
46491;SDS011;32206;51.446;6.792;2023-05-09T05:11:27;37.58;;;23.30;;
46491;SDS011;32206;51.446;6.792;2023-05-09T05:16:43;46.17;;;25.05;;
46491;SDS011;32206;51.446;6.792;2023-05-09T05:19:09;35.88;;;23.40;;
46491;SDS011;32206;51.446;6.792;2023-05-09T05:21:34;44.80;;;23.83;;
46491;SDS011;32206;51.446;6.792;2023-05-09T05:30:34;40.67;;;22.95;;
46491;SDS011;32206;51.446;6.792;2023-05-09T05:33:00;44.97;;;23.77;;
46491;SDS011;32206;51.446;6.792;2023-05-09T05:35:26;45.88;;;24.95;;
46491;SDS011;32206;51.446;6.792;2023-05-09T05:37:52;43.17;;;24.67;;
46491;SDS011;32206;51.446;6.792;2023-05-09T05:40:18;39.67;;;23.63;;
46491;SDS011;32206;51.446;6.792;2023-05-09T05:42:44;46.55;;;24.98;;
46491;SDS011;32206;51.446;6.792;2023-05-09T05:48:38;48.40;;;24.88;;
46491;SDS011;32206;51.446;6.792;2023-05-09T05:51:04;52.67;;;27.15;;
46491;SDS011;32206;51.446;6.792;2023-05-09T05:53:30;59.47;;;29.10;;
46491;SDS011;32206;51.446;6.792;2023-05-09T05:55:56;58.25;;;29.83;;
46491;SDS011;32206;51.446;6.792;2023-05-09T05:58:21;69.85;;;30.30;;
46491;SDS011;32206;51.446;6.792;2023-05-09T06:00:48;62.55;;;30.67;;
46491;SDS011;32206;51.446;6.792;2023-05-09T06:03:16;64.82;;;32.08;;
46491;SDS011;32206;51.446;6.792;2023-05-09T06:05:42;64.70;;;31.90;;
46491;SDS011;32206;51.446;6.792;2023-05-09T06:08:08;68.70;;;32.85;;
46491;SDS011;32206;51.446;6.792;2023-05-09T06:10:34;76.88;;;34.08;;
46491;SDS011;32206;51.446;6.792;2023-05-09T06:13:00;76.50;;;35.08;;
46491;SDS011;32206;51.446;6.792;2023-05-09T06:15:25;83.53;;;35.50;;
46491;SDS011;32206;51.446;6.792;2023-05-09T06:17:51;82.70;;;35.47;;
46491;SDS011;32206;51.446;6.792;2023-05-09T06:20:17;79.13;;;35.88;;
46491;SDS011;32206;51.446;6.792;2023-05-09T06:22:43;72.82;;;34.67;;
46491;SDS011;32206;51.446;6.792;2023-05-09T06:25:09;78.68;;;36.25;;
46491;SDS011;32206;51.446;6.792;2023-05-09T06:27:34;74.80;;;35.38;;
46491;SDS011;32206;51.446;6.792;2023-05-09T06:30:00;75.43;;;34.40;;
46491;SDS011;32206;51.446;6.792;2023-05-09T06:32:26;70.80;;;36.05;;
46491;SDS011;32206;51.446;6.792;2023-05-09T06:34:51;69.88;;;33.92;;
46491;SDS011;32206;51.446;6.792;2023-05-09T06:37:17;65.78;;;33.53;;
46491;SDS011;32206;51.446;6.792;2023-05-09T06:39:43;59.20;;;29.98;;
46491;SDS011;32206;51.446;6.792;2023-05-09T06:42:08;62.63;;;28.65;;
46491;SDS011;32206;51.446;6.792;2023-05-09T06:44:34;48.50;;;26.83;;
46491;SDS011;32206;51.446;6.792;2023-05-09T06:46:59;52.03;;;26.95;;
46491;SDS011;32206;51.446;6.792;2023-05-09T06:53:03;37.88;;;20.38;;
46491;SDS011;32206;51.446;6.792;2023-05-09T06:55:29;27.23;;;19.17;;
46491;SDS011;32206;51.446;6.792;2023-05-09T06:57:55;24.38;;;16.83;;
46491;SDS011;32206;51.446;6.792;2023-05-09T07:00:21;24.27;;;14.88;;
46491;SDS011;32206;51.446;6.792;2023-05-09T07:02:46;23.40;;;14.30;;
46491;SDS011;32206;51.446;6.792;2023-05-09T07:05:12;16.85;;;13.73;;
46491;SDS011;32206;51.446;6.792;2023-05-09T07:07:38;19.77;;;13.95;;
46491;SDS011;32206;51.446;6.792;2023-05-09T07:10:04;16.52;;;14.25;;
46491;SDS011;32206;51.446;6.792;2023-05-09T07:12:31;15.13;;;13.30;;
46491;SDS011;32206;51.446;6.792;2023-05-09T07:18:19;13.95;;;12.45;;
46491;SDS011;32206;51.446;6.792;2023-05-09T07:20:44;15.95;;;13.18;;
46491;SDS011;32206;51.446;6.792;2023-05-09T07:23:10;14.07;;;11.75;;
46491;SDS011;32206;51.446;6.792;2023-05-09T07:25:36;14.65;;;12.45;;
46491;SDS011;32206;51.446;6.792;2023-05-09T07:28:01;15.07;;;12.10;;
46491;SDS011;32206;51.446;6.792;2023-05-09T07:30:27;15.02;;;12.90;;
46491;SDS011;32206;51.446;6.792;2023-05-09T07:32:52;15.25;;;12.00;;
46491;SDS011;32206;51.446;6.792;2023-05-09T07:35:18;14.90;;;12.57;;
46491;SDS011;32206;51.446;6.792;2023-05-09T07:37:44;15.30;;;11.55;;
46491;SDS011;32206;51.446;6.792;2023-05-09T07:40:10;12.95;;;10.88;;
46491;SDS011;32206;51.446;6.792;2023-05-09T07:42:36;13.90;;;11.32;;
46491;SDS011;32206;51.446;6.792;2023-05-09T07:48:24;13.07;;;10.82;;
46491;SDS011;32206;51.446;6.792;2023-05-09T07:50:50;17.13;;;11.13;;
46491;SDS011;32206;51.446;6.792;2023-05-09T07:53:16;12.30;;;10.90;;
46491;SDS011;32206;51.446;6.792;2023-05-09T07:55:41;13.90;;;10.95;;
46491;SDS011;32206;51.446;6.792;2023-05-09T07:58:09;13.18;;;11.52;;
46491;SDS011;32206;51.446;6.792;2023-05-09T08:00:37;16.77;;;11.63;;
46491;SDS011;32206;51.446;6.792;2023-05-09T08:03:03;13.98;;;12.48;;
46491;SDS011;32206;51.446;6.792;2023-05-09T08:05:28;12.98;;;11.15;;
46491;SDS011;32206;51.446;6.792;2023-05-09T08:07:54;13.27;;;11.88;;
46491;SDS011;32206;51.446;6.792;2023-05-09T08:10:20;13.85;;;11.65;;
46491;SDS011;32206;51.446;6.792;2023-05-09T08:12:47;11.85;;;10.60;;
46491;SDS011;32206;51.446;6.792;2023-05-09T08:18:09;10.40;;;9.30;;
46491;SDS011;32206;51.446;6.792;2023-05-09T08:20:35;9.70;;;8.52;;
46491;SDS011;32206;51.446;6.792;2023-05-09T08:23:01;10.80;;;9.68;;
46491;SDS011;32206;51.446;6.792;2023-05-09T08:25:26;11.50;;;8.95;;
46491;SDS011;32206;51.446;6.792;2023-05-09T08:27:53;9.73;;;7.50;;
46491;SDS011;32206;51.446;6.792;2023-05-09T08:30:19;8.80;;;7.90;;
46491;SDS011;32206;51.446;6.792;2023-05-09T08:32:44;8.68;;;7.88;;
46491;SDS011;32206;51.446;6.792;2023-05-09T08:38:32;8.02;;;7.18;;
46491;SDS011;32206;51.446;6.792;2023-05-09T08:41:00;11.05;;;8.50;;
46491;SDS011;32206;51.446;6.792;2023-05-09T08:43:27;10.70;;;8.20;;
46491;SDS011;32206;51.446;6.792;2023-05-09T08:51:59;9.15;;;7.90;;
46491;SDS011;32206;51.446;6.792;2023-05-09T08:54:26;9.23;;;8.43;;
46491;SDS011;32206;51.446;6.792;2023-05-09T08:56:53;7.47;;;6.80;;
46491;SDS011;32206;51.446;6.792;2023-05-09T08:59:19;8.88;;;6.53;;
46491;SDS011;32206;51.446;6.792;2023-05-09T09:01:46;6.57;;;5.85;;
46491;SDS011;32206;51.446;6.792;2023-05-09T09:04:11;6.55;;;5.75;;
46491;SDS011;32206;51.446;6.792;2023-05-09T09:09:59;4.65;;;3.55;;
46491;SDS011;32206;51.446;6.792;2023-05-09T09:12:26;9.13;;;4.97;;
46491;SDS011;32206;51.446;6.792;2023-05-09T09:14:53;5.13;;;4.45;;
46491;SDS011;32206;51.446;6.792;2023-05-09T09:17:23;4.85;;;4.18;;
46491;SDS011;32206;51.446;6.792;2023-05-09T09:19:53;6.43;;;3.47;;
46491;SDS011;32206;51.446;6.792;2023-05-09T09:22:22;4.18;;;3.55;;
46491;SDS011;32206;51.446;6.792;2023-05-09T09:24:51;4.47;;;3.15;;
46491;SDS011;32206;51.446;6.792;2023-05-09T09:27:17;4.35;;;3.47;;
46491;SDS011;32206;51.446;6.792;2023-05-09T09:29:43;4.43;;;3.40;;
46491;SDS011;32206;51.446;6.792;2023-05-09T09:32:08;5.68;;;3.50;;
46491;SDS011;32206;51.446;6.792;2023-05-09T09:34:34;4.18;;;3.78;;
46491;SDS011;32206;51.446;6.792;2023-05-09T09:37:00;4.50;;;3.67;;
46491;SDS011;32206;51.446;6.792;2023-05-09T09:39:25;4.45;;;3.85;;
46491;SDS011;32206;51.446;6.792;2023-05-09T09:41:51;4.40;;;3.47;;
46491;SDS011;32206;51.446;6.792;2023-05-09T09:44:18;5.65;;;3.00;;
46491;SDS011;32206;51.446;6.792;2023-05-09T09:46:52;3.03;;;2.75;;
46491;SDS011;32206;51.446;6.792;2023-05-09T09:49:23;5.68;;;3.50;;
46491;SDS011;32206;51.446;6.792;2023-05-09T09:51:50;4.05;;;3.45;;
46491;SDS011;32206;51.446;6.792;2023-05-09T09:54:20;4.70;;;3.70;;
46491;SDS011;32206;51.446;6.792;2023-05-09T09:56:49;3.70;;;3.20;;
46491;SDS011;32206;51.446;6.792;2023-05-09T09:59:18;3.75;;;2.53;;
46491;SDS011;32206;51.446;6.792;2023-05-09T10:04:29;4.85;;;3.00;;
46491;SDS011;32206;51.446;6.792;2023-05-09T10:06:57;8.57;;;2.78;;
46491;SDS011;32206;51.446;6.792;2023-05-09T10:09:28;4.25;;;2.50;;
46491;SDS011;32206;51.446;6.792;2023-05-09T10:11:55;4.95;;;3.22;;
46491;SDS011;32206;51.446;6.792;2023-05-09T10:14:24;3.25;;;2.17;;
46491;SDS011;32206;51.446;6.792;2023-05-09T10:16:51;4.20;;;1.95;;
46491;SDS011;32206;51.446;6.792;2023-05-09T10:19:20;6.50;;;2.25;;
46491;SDS011;32206;51.446;6.792;2023-05-09T10:21:50;3.58;;;2.63;;
46491;SDS011;32206;51.446;6.792;2023-05-09T10:24:38;5.13;;;2.53;;
46491;SDS011;32206;51.446;6.792;2023-05-09T10:27:08;3.15;;;2.20;;
46491;SDS011;32206;51.446;6.792;2023-05-09T10:29:45;8.02;;;2.13;;
46491;SDS011;32206;51.446;6.792;2023-05-09T10:33:01;2.40;;;2.20;;
46491;SDS011;32206;51.446;6.792;2023-05-09T10:35:18;4.78;;;2.65;;
46491;SDS011;32206;51.446;6.792;2023-05-09T10:37:48;4.10;;;2.58;;
46491;SDS011;32206;51.446;6.792;2023-05-09T10:40:14;2.88;;;2.30;;
46491;SDS011;32206;51.446;6.792;2023-05-09T10:42:41;3.28;;;2.47;;
46491;SDS011;32206;51.446;6.792;2023-05-09T10:45:08;4.18;;;2.35;;
46491;SDS011;32206;51.446;6.792;2023-05-09T10:47:37;3.83;;;2.50;;
46491;SDS011;32206;51.446;6.792;2023-05-09T10:50:07;3.17;;;2.72;;
46491;SDS011;32206;51.446;6.792;2023-05-09T10:52:34;2.38;;;2.13;;
46491;SDS011;32206;51.446;6.792;2023-05-09T10:55:53;2.38;;;2.17;;
46491;SDS011;32206;51.446;6.792;2023-05-09T10:58:28;5.22;;;2.83;;
46491;SDS011;32206;51.446;6.792;2023-05-09T11:00:56;2.97;;;1.90;;
46491;SDS011;32206;51.446;6.792;2023-05-09T11:03:23;1.90;;;1.77;;
46491;SDS011;32206;51.446;6.792;2023-05-09T11:05:50;3.03;;;2.28;;
46491;SDS011;32206;51.446;6.792;2023-05-09T11:08:27;2.42;;;2.10;;
46491;SDS011;32206;51.446;6.792;2023-05-09T11:10:58;3.35;;;2.20;;
46491;SDS011;32206;51.446;6.792;2023-05-09T11:13:30;6.18;;;2.50;;
46491;SDS011;32206;51.446;6.792;2023-05-09T11:21:15;2.15;;;1.70;;
46491;SDS011;32206;51.446;6.792;2023-05-09T11:23:41;2.13;;;1.90;;
46491;SDS011;32206;51.446;6.792;2023-05-09T11:32:54;3.22;;;1.30;;
46491;SDS011;32206;51.446;6.792;2023-05-09T11:35:23;19.23;;;6.40;;
46491;SDS011;32206;51.446;6.792;2023-05-09T11:37:52;23.80;;;9.27;;
46491;SDS011;32206;51.446;6.792;2023-05-09T11:40:24;2.97;;;2.00;;
46491;SDS011;32206;51.446;6.792;2023-05-09T11:42:51;2.03;;;1.75;;
46491;SDS011;32206;51.446;6.792;2023-05-09T11:45:18;3.78;;;1.70;;
46491;SDS011;32206;51.446;6.792;2023-05-09T11:47:45;2.30;;;1.90;;
46491;SDS011;32206;51.446;6.792;2023-05-09T11:50:12;2.13;;;1.60;;
46491;SDS011;32206;51.446;6.792;2023-05-09T11:52:39;3.08;;;2.00;;
46491;SDS011;32206;51.446;6.792;2023-05-09T11:55:08;5.13;;;2.10;;
46491;SDS011;32206;51.446;6.792;2023-05-09T11:57:45;2.78;;;1.73;;
46491;SDS011;32206;51.446;6.792;2023-05-09T12:00:20;6.63;;;1.80;;
46491;SDS011;32206;51.446;6.792;2023-05-09T12:02:48;2.75;;;1.60;;
46491;SDS011;32206;51.446;6.792;2023-05-09T12:11:59;5.57;;;1.77;;
46491;SDS011;32206;51.446;6.792;2023-05-09T12:14:25;3.45;;;1.75;;
46491;SDS011;32206;51.446;6.792;2023-05-09T12:16:51;3.83;;;1.23;;
46491;SDS011;32206;51.446;6.792;2023-05-09T12:19:17;5.43;;;2.35;;
46491;SDS011;32206;51.446;6.792;2023-05-09T12:21:43;5.50;;;1.67;;
46491;SDS011;32206;51.446;6.792;2023-05-09T12:24:08;1.58;;;1.08;;
46491;SDS011;32206;51.446;6.792;2023-05-09T12:29:56;4.07;;;0.98;;
46491;SDS011;32206;51.446;6.792;2023-05-09T12:32:23;2.63;;;1.38;;
46491;SDS011;32206;51.446;6.792;2023-05-09T12:34:55;1.73;;;1.15;;
46491;SDS011;32206;51.446;6.792;2023-05-09T12:37:22;4.05;;;1.40;;
46491;SDS011;32206;51.446;6.792;2023-05-09T12:42:35;1.48;;;1.10;;
46491;SDS011;32206;51.446;6.792;2023-05-09T12:45:03;5.22;;;1.15;;
46491;SDS011;32206;51.446;6.792;2023-05-09T12:47:31;1.00;;;0.93;;
46491;SDS011;32206;51.446;6.792;2023-05-09T12:49:58;2.25;;;1.05;;
46491;SDS011;32206;51.446;6.792;2023-05-09T12:52:24;3.75;;;0.90;;
46491;SDS011;32206;51.446;6.792;2023-05-09T12:55:02;4.72;;;1.20;;
46491;SDS011;32206;51.446;6.792;2023-05-09T12:57:32;3.90;;;2.88;;
46491;SDS011;32206;51.446;6.792;2023-05-09T12:59:58;3.22;;;2.70;;
46491;SDS011;32206;51.446;6.792;2023-05-09T13:02:25;4.68;;;3.63;;
46491;SDS011;32206;51.446;6.792;2023-05-09T13:07:42;4.15;;;2.78;;
46491;SDS011;32206;51.446;6.792;2023-05-09T13:10:13;6.40;;;4.30;;
46491;SDS011;32206;51.446;6.792;2023-05-09T13:12:47;6.40;;;3.85;;
46491;SDS011;32206;51.446;6.792;2023-05-09T13:18:48;5.05;;;4.50;;
46491;SDS011;32206;51.446;6.792;2023-05-09T13:21:14;5.80;;;4.78;;
46491;SDS011;32206;51.446;6.792;2023-05-09T13:23:40;3.38;;;3.08;;
46491;SDS011;32206;51.446;6.792;2023-05-09T13:26:09;3.70;;;3.20;;
46491;SDS011;32206;51.446;6.792;2023-05-09T13:28:35;8.18;;;3.60;;
46491;SDS011;32206;51.446;6.792;2023-05-09T13:31:00;6.88;;;4.43;;
46491;SDS011;32206;51.446;6.792;2023-05-09T13:33:26;6.13;;;4.82;;
46491;SDS011;32206;51.446;6.792;2023-05-09T13:35:52;6.90;;;4.80;;
46491;SDS011;32206;51.446;6.792;2023-05-09T13:38:18;5.40;;;4.97;;
46491;SDS011;32206;51.446;6.792;2023-05-09T13:40:43;5.85;;;5.28;;
46491;SDS011;32206;51.446;6.792;2023-05-09T13:43:09;6.72;;;5.65;;
46491;SDS011;32206;51.446;6.792;2023-05-09T13:45:35;6.15;;;5.55;;
46491;SDS011;32206;51.446;6.792;2023-05-09T13:48:00;8.18;;;5.50;;
46491;SDS011;32206;51.446;6.792;2023-05-09T13:50:26;8.50;;;5.57;;
46491;SDS011;32206;51.446;6.792;2023-05-09T13:52:51;5.65;;;5.15;;
46491;SDS011;32206;51.446;6.792;2023-05-09T13:58:55;6.80;;;6.18;;
46491;SDS011;32206;51.446;6.792;2023-05-09T14:01:20;8.73;;;6.75;;
46491;SDS011;32206;51.446;6.792;2023-05-09T14:03:46;7.32;;;5.80;;
46491;SDS011;32206;51.446;6.792;2023-05-09T14:06:13;9.85;;;7.15;;
46491;SDS011;32206;51.446;6.792;2023-05-09T14:08:38;8.23;;;6.80;;
46491;SDS011;32206;51.446;6.792;2023-05-09T14:11:04;7.18;;;5.82;;
46491;SDS011;32206;51.446;6.792;2023-05-09T14:13:31;8.52;;;6.88;;
46491;SDS011;32206;51.446;6.792;2023-05-09T14:19:00;9.82;;;6.55;;
46491;SDS011;32206;51.446;6.792;2023-05-09T14:21:26;8.93;;;7.70;;
46491;SDS011;32206;51.446;6.792;2023-05-09T14:23:52;9.60;;;7.30;;
46491;SDS011;32206;51.446;6.792;2023-05-09T14:29:39;7.70;;;7.10;;
46491;SDS011;32206;51.446;6.792;2023-05-09T14:32:06;11.70;;;10.45;;
46491;SDS011;32206;51.446;6.792;2023-05-09T14:34:33;7.63;;;6.72;;
46491;SDS011;32206;51.446;6.792;2023-05-09T14:36:59;6.82;;;6.22;;
46491;SDS011;32206;51.446;6.792;2023-05-09T14:39:24;6.38;;;5.78;;
46491;SDS011;32206;51.446;6.792;2023-05-09T14:41:50;5.85;;;5.30;;
46491;SDS011;32206;51.446;6.792;2023-05-09T14:44:16;6.93;;;5.65;;
46491;SDS011;32206;51.446;6.792;2023-05-09T14:46:41;5.68;;;4.90;;
46491;SDS011;32206;51.446;6.792;2023-05-09T14:49:07;7.40;;;5.95;;
46491;SDS011;32206;51.446;6.792;2023-05-09T14:51:33;5.65;;;5.15;;
46491;SDS011;32206;51.446;6.792;2023-05-09T14:53:59;5.90;;;5.50;;
46491;SDS011;32206;51.446;6.792;2023-05-09T14:56:25;7.43;;;6.03;;
46491;SDS011;32206;51.446;6.792;2023-05-09T14:58:52;6.25;;;5.68;;
46491;SDS011;32206;51.446;6.792;2023-05-09T15:01:17;5.18;;;4.70;;
46491;SDS011;32206;51.446;6.792;2023-05-09T15:03:43;6.70;;;5.35;;
46491;SDS011;32206;51.446;6.792;2023-05-09T15:09:43;5.47;;;4.72;;
46491;SDS011;32206;51.446;6.792;2023-05-09T15:12:09;5.70;;;5.10;;
46491;SDS011;32206;51.446;6.792;2023-05-09T15:17:57;5.97;;;5.07;;
46491;SDS011;32206;51.446;6.792;2023-05-09T15:20:22;4.43;;;4.13;;
46491;SDS011;32206;51.446;6.792;2023-05-09T15:22:48;4.70;;;3.83;;
46491;SDS011;32206;51.446;6.792;2023-05-09T15:25:15;3.35;;;3.15;;
46491;SDS011;32206;51.446;6.792;2023-05-09T15:27:41;4.65;;;4.35;;
46491;SDS011;32206;51.446;6.792;2023-05-09T15:30:07;4.97;;;4.53;;
46491;SDS011;32206;51.446;6.792;2023-05-09T15:32:35;4.30;;;4.00;;
46491;SDS011;32206;51.446;6.792;2023-05-09T15:35:02;4.20;;;3.90;;
46491;SDS011;32206;51.446;6.792;2023-05-09T15:37:29;10.25;;;8.00;;
46491;SDS011;32206;51.446;6.792;2023-05-09T15:39:55;4.90;;;4.50;;
46491;SDS011;32206;51.446;6.792;2023-05-09T15:42:21;4.80;;;4.35;;
46491;SDS011;32206;51.446;6.792;2023-05-09T15:44:46;6.10;;;4.80;;
46491;SDS011;32206;51.446;6.792;2023-05-09T15:47:12;5.75;;;5.07;;
46491;SDS011;32206;51.446;6.792;2023-05-09T15:49:38;4.93;;;4.40;;
46491;SDS011;32206;51.446;6.792;2023-05-09T15:52:07;4.63;;;3.78;;
46491;SDS011;32206;51.446;6.792;2023-05-09T15:54:34;6.03;;;5.00;;
46491;SDS011;32206;51.446;6.792;2023-05-09T16:00:22;4.30;;;3.95;;
46491;SDS011;32206;51.446;6.792;2023-05-09T16:02:48;4.38;;;3.45;;
46491;SDS011;32206;51.446;6.792;2023-05-09T16:05:14;3.72;;;3.42;;
46491;SDS011;32206;51.446;6.792;2023-05-09T16:07:44;3.30;;;3.03;;
46491;SDS011;32206;51.446;6.792;2023-05-09T16:10:10;3.28;;;3.00;;
46491;SDS011;32206;51.446;6.792;2023-05-09T16:12:37;4.00;;;3.60;;
46491;SDS011;32206;51.446;6.792;2023-05-09T16:15:03;3.17;;;2.97;;
46491;SDS011;32206;51.446;6.792;2023-05-09T16:17:29;3.63;;;3.28;;
46491;SDS011;32206;51.446;6.792;2023-05-09T16:19:55;4.10;;;3.75;;
46491;SDS011;32206;51.446;6.792;2023-05-09T16:22:22;7.68;;;2.67;;
46491;SDS011;32206;51.446;6.792;2023-05-09T16:24:48;3.95;;;2.90;;
46491;SDS011;32206;51.446;6.792;2023-05-09T16:27:14;3.45;;;2.90;;
46491;SDS011;32206;51.446;6.792;2023-05-09T16:29:40;3.72;;;3.13;;
46491;SDS011;32206;51.446;6.792;2023-05-09T16:32:06;4.47;;;2.65;;
46491;SDS011;32206;51.446;6.792;2023-05-09T16:34:32;3.42;;;3.13;;
46491;SDS011;32206;51.446;6.792;2023-05-09T16:36:59;2.90;;;2.70;;
46491;SDS011;32206;51.446;6.792;2023-05-09T16:39:26;3.20;;;2.47;;
46491;SDS011;32206;51.446;6.792;2023-05-09T16:41:52;5.13;;;3.10;;
46491;SDS011;32206;51.446;6.792;2023-05-09T16:44:19;4.68;;;2.92;;
46491;SDS011;32206;51.446;6.792;2023-05-09T16:50:07;2.53;;;2.28;;
46491;SDS011;32206;51.446;6.792;2023-05-09T16:52:34;3.55;;;3.22;;
46491;SDS011;32206;51.446;6.792;2023-05-09T16:55:00;2.30;;;2.10;;
46491;SDS011;32206;51.446;6.792;2023-05-09T16:57:25;2.78;;;2.58;;
46491;SDS011;32206;51.446;6.792;2023-05-09T16:59:51;2.28;;;2.15;;